createdAt,value
2022-10-13T00:00:49.817Z,7.50
2022-10-13T00:03:17.652Z,7.50
2022-10-13T00:05:48.256Z,7.50
2022-10-13T00:08:19.987Z,7.50
2022-10-13T00:10:49.608Z,7.50
2022-10-13T00:13:20.718Z,7.50
2022-10-13T00:15:48.606Z,7.50
2022-10-13T00:18:16.224Z,7.50
2022-10-13T00:20:49.515Z,7.50
2022-10-13T00:23:16.995Z,7.60
2022-10-13T00:25:45.949Z,7.70
2022-10-13T00:28:13.668Z,7.70
2022-10-13T00:30:41.846Z,7.90
2022-10-13T00:33:10.019Z,8.00
2022-10-13T00:35:48.028Z,8.00
2022-10-13T00:38:17.995Z,8.10
2022-10-13T00:40:49.813Z,8.10
2022-10-13T00:43:24.761Z,8.20
2022-10-13T00:45:52.583Z,8.20
2022-10-13T00:48:23.448Z,8.30
2022-10-13T00:50:51.398Z,8.30
2022-10-13T00:53:21.581Z,8.20
2022-10-13T00:55:49.410Z,8.20
2022-10-13T00:58:19.423Z,8.20
2022-10-13T01:00:50.022Z,8.10
2022-10-13T01:03:21.143Z,8.10
2022-10-13T01:05:50.390Z,8.10
2022-10-13T01:08:19.659Z,8.10
2022-10-13T01:10:57.243Z,8.10
2022-10-13T01:13:34.848Z,8.00
2022-10-13T01:16:22.192Z,8.00
2022-10-13T01:19:06.240Z,7.90
2022-10-13T01:21:44.955Z,7.90
2022-10-13T01:24:17.420Z,7.90
2022-10-13T01:27:02.788Z,7.90
2022-10-13T01:30:00.759Z,7.90
2022-10-13T01:32:35.227Z,7.80
2022-10-13T01:35:10.115Z,7.80
2022-10-13T01:37:55.863Z,7.80
2022-10-13T01:40:28.989Z,7.70
2022-10-13T01:43:07.274Z,7.70
2022-10-13T01:46:01.488Z,7.70
2022-10-13T01:48:29.330Z,7.70
2022-10-13T01:50:58.678Z,7.80
2022-10-13T01:53:26.587Z,7.80
2022-10-13T01:55:56.411Z,7.80
2022-10-13T01:58:26.080Z,7.80
2022-10-13T02:01:33.980Z,7.80
2022-10-13T02:04:13.140Z,7.80
2022-10-13T02:07:05.165Z,7.80
2022-10-13T02:09:40.233Z,7.80
2022-10-13T02:12:16.842Z,7.70
2022-10-13T02:14:45.261Z,7.80
2022-10-13T02:17:12.610Z,7.80
2022-10-13T02:19:42.859Z,7.80
2022-10-13T02:22:13.151Z,7.80
2022-10-13T02:24:40.031Z,7.80
2022-10-13T02:27:07.964Z,7.80
2022-10-13T02:29:35.062Z,7.90
2022-10-13T02:32:02.010Z,7.90
2022-10-13T02:34:28.952Z,7.90
2022-10-13T02:36:55.712Z,7.80
2022-10-13T02:39:22.500Z,7.80
2022-10-13T02:41:49.325Z,7.90
2022-10-13T02:44:16.277Z,8.00
2022-10-13T02:46:43.035Z,8.10
2022-10-13T02:49:10.721Z,8.20
2022-10-13T02:51:40.167Z,8.30
2022-10-13T02:54:07.677Z,8.30
2022-10-13T02:56:34.482Z,8.30
2022-10-13T02:59:01.387Z,8.30
2022-10-13T03:01:28.150Z,8.40
2022-10-13T03:03:54.830Z,8.40
2022-10-13T03:06:21.748Z,8.50
2022-10-13T03:08:49.072Z,8.60
2022-10-13T03:11:16.050Z,8.60
2022-10-13T03:13:42.735Z,8.60
2022-10-13T03:16:09.492Z,8.60
2022-10-13T03:18:36.298Z,8.60
2022-10-13T03:21:05.691Z,8.60
2022-10-13T03:23:34.359Z,8.60
2022-10-13T03:26:02.178Z,8.60
2022-10-13T03:28:30.809Z,8.60
2022-10-13T03:31:17.912Z,8.60
2022-10-13T03:33:47.172Z,8.60
2022-10-13T03:36:14.198Z,8.60
2022-10-13T03:38:42.578Z,8.60
2022-10-13T03:41:12.161Z,8.60
2022-10-13T03:43:39.622Z,8.50
2022-10-13T03:46:08.413Z,8.50
2022-10-13T03:49:07.300Z,8.50
2022-10-13T03:55:12.913Z,8.40
2022-10-13T03:57:39.987Z,8.40
2022-10-13T04:00:18.634Z,8.40
2022-10-13T04:03:07.004Z,8.40
2022-10-13T04:06:05.019Z,8.40
2022-10-13T04:08:55.412Z,8.40
2022-10-13T04:14:26.177Z,8.30
2022-10-13T04:17:21.186Z,8.30
2022-10-13T04:20:04.944Z,8.40
2022-10-13T04:26:12.211Z,8.50
2022-10-13T04:28:56.116Z,8.60
2022-10-13T04:31:38.257Z,8.60
2022-10-13T04:34:29.415Z,8.60
2022-10-13T04:37:12.801Z,8.70
2022-10-13T04:40:09.823Z,8.70
2022-10-13T04:42:45.397Z,8.70
2022-10-13T04:45:23.545Z,8.70
2022-10-13T04:48:09.716Z,8.70
2022-10-13T04:50:44.054Z,8.70
2022-10-13T04:53:19.594Z,8.60
2022-10-13T04:56:13.889Z,8.60
2022-10-13T04:59:06.097Z,8.60
2022-10-13T05:01:54.441Z,8.60
2022-10-13T05:04:28.327Z,8.70
2022-10-13T05:07:17.436Z,8.70
2022-10-13T05:09:53.498Z,8.70
2022-10-13T05:12:23.734Z,8.70
2022-10-13T05:14:51.387Z,8.60
2022-10-13T05:17:19.861Z,8.60
2022-10-13T05:20:10.875Z,8.60
2022-10-13T05:22:45.531Z,8.60
2022-10-13T05:25:19.204Z,8.60
2022-10-13T05:27:52.998Z,8.60
2022-10-13T05:30:21.988Z,8.60
2022-10-13T05:32:54.005Z,8.50
2022-10-13T05:35:21.942Z,8.50
2022-10-13T05:37:50.851Z,8.50
2022-10-13T05:40:19.830Z,8.50
2022-10-13T05:42:47.144Z,8.50
2022-10-13T05:45:20.903Z,8.50
2022-10-13T05:47:48.116Z,8.50
2022-10-13T05:50:15.325Z,8.50
2022-10-13T05:52:47.429Z,8.50
2022-10-13T05:55:18.949Z,8.40
2022-10-13T05:57:51.270Z,8.40
2022-10-13T06:00:28.807Z,8.30
2022-10-13T06:03:23.410Z,8.30
2022-10-13T06:05:53.432Z,8.30
2022-10-13T06:08:20.556Z,8.30
2022-10-13T06:10:51.932Z,8.30
2022-10-13T06:13:23.085Z,8.40
2022-10-13T06:15:55.037Z,8.50
2022-10-13T06:18:24.848Z,8.50
2022-10-13T06:20:51.960Z,8.60
2022-10-13T06:23:18.868Z,8.80
2022-10-13T06:25:52.166Z,8.80
2022-10-13T06:28:24.780Z,8.90
2022-10-13T06:30:57.397Z,9.00
2022-10-13T06:33:27.691Z,9.00
2022-10-13T06:36:15.956Z,9.10
2022-10-13T06:38:45.820Z,9.10
2022-10-13T06:41:16.052Z,9.20
2022-10-13T06:43:43.700Z,9.20
2022-10-13T06:46:11.967Z,9.30
2022-10-13T06:48:39.498Z,9.30
2022-10-13T06:51:11.065Z,9.40
2022-10-13T06:53:40.577Z,9.40
2022-10-13T06:56:11.920Z,9.40
2022-10-13T06:58:48.392Z,9.50
2022-10-13T07:01:16.026Z,9.60
2022-10-13T07:03:58.598Z,9.80
2022-10-13T07:06:25.827Z,9.80
2022-10-13T07:08:54.631Z,9.70
2022-10-13T07:11:23.568Z,9.80
2022-10-13T07:13:54.615Z,10.00
2022-10-13T07:16:21.794Z,10.10
2022-10-13T07:18:51.564Z,10.20
2022-10-13T07:21:19.223Z,10.20
2022-10-13T07:23:57.434Z,10.20
2022-10-13T07:30:01.034Z,10.20
2022-10-13T07:32:47.680Z,10.30
2022-10-13T07:36:13.898Z,10.30
2022-10-13T07:38:41.149Z,10.30
2022-10-13T07:41:21.268Z,10.30
2022-10-13T07:44:06.047Z,10.30
2022-10-13T07:46:37.729Z,10.30
2022-10-13T07:49:11.121Z,10.30
2022-10-13T07:51:47.495Z,10.30
2022-10-13T07:54:27.235Z,10.30
2022-10-13T07:56:59.603Z,10.40
2022-10-13T07:59:40.087Z,10.40
2022-10-13T08:02:19.535Z,10.50
2022-10-13T08:09:35.956Z,10.60
2022-10-13T08:15:53.651Z,10.70
2022-10-13T08:18:35.330Z,10.80
2022-10-13T08:21:39.181Z,10.80
2022-10-13T08:24:35.028Z,10.90
2022-10-13T08:27:50.084Z,11.00
2022-10-13T08:30:25.824Z,11.10
2022-10-13T08:32:57.453Z,11.20
2022-10-13T08:35:35.003Z,11.20
2022-10-13T08:38:02.003Z,11.30
2022-10-13T08:40:30.476Z,11.30
2022-10-13T08:43:00.357Z,11.30
2022-10-13T08:45:45.631Z,11.30
2022-10-13T08:48:25.828Z,11.40
2022-10-13T08:50:56.546Z,11.40
2022-10-13T08:53:35.458Z,11.60
2022-10-13T08:56:18.966Z,11.60
2022-10-13T08:58:47.888Z,11.60
2022-10-13T09:01:24.785Z,11.70
2022-10-13T09:04:03.618Z,11.90
2022-10-13T09:06:32.922Z,11.90
2022-10-13T09:09:03.787Z,12.00
2022-10-13T09:11:44.856Z,12.00
2022-10-13T09:14:33.618Z,12.00
2022-10-13T09:17:23.746Z,12.00
2022-10-13T09:20:18.527Z,12.00
2022-10-13T09:22:59.826Z,12.10
2022-10-13T09:25:26.619Z,12.10
2022-10-13T09:27:57.903Z,12.20
2022-10-13T09:30:35.222Z,12.10
2022-10-13T09:33:09.325Z,12.10
2022-10-13T09:35:41.607Z,12.10
2022-10-13T09:38:22.808Z,12.10
2022-10-13T09:41:08.807Z,12.00
2022-10-13T09:43:42.176Z,11.90
2022-10-13T09:46:23.020Z,11.90
2022-10-13T09:48:54.122Z,11.90
2022-10-13T09:51:37.797Z,11.90
2022-10-13T09:54:43.302Z,11.90
2022-10-13T09:57:21.585Z,11.90
2022-10-13T10:00:14.562Z,11.90
2022-10-13T10:03:03.055Z,11.90
2022-10-13T10:05:50.623Z,11.80
2022-10-13T10:08:33.609Z,11.80
2022-10-13T10:11:12.216Z,11.80
2022-10-13T10:13:38.871Z,11.90
2022-10-13T10:16:07.300Z,12.00
2022-10-13T10:18:51.930Z,12.00
2022-10-13T10:21:43.846Z,12.00
2022-10-13T10:24:17.708Z,12.00
2022-10-13T10:26:55.061Z,12.10
2022-10-13T10:29:45.334Z,12.20
2022-10-13T10:32:29.053Z,12.20
2022-10-13T10:35:14.690Z,12.40
2022-10-13T10:38:10.780Z,12.50
2022-10-13T10:40:46.788Z,12.60
2022-10-13T10:43:28.687Z,12.60
2022-10-13T10:45:58.586Z,12.70
2022-10-13T10:48:38.933Z,12.90
2022-10-13T10:51:11.337Z,13.10
2022-10-13T10:54:16.366Z,13.30
2022-10-13T10:57:06.400Z,13.60
2022-10-13T10:59:54.292Z,14.10
2022-10-13T11:02:24.400Z,14.60
2022-10-13T11:04:53.329Z,15.00
2022-10-13T11:07:22.892Z,15.40
2022-10-13T11:09:52.940Z,15.80
2022-10-13T11:12:20.160Z,16.20
2022-10-13T11:15:10.032Z,16.50
2022-10-13T11:17:38.963Z,16.80
2022-10-13T11:20:35.204Z,17.10
2022-10-13T11:23:04.654Z,17.50
2022-10-13T11:25:42.078Z,17.80
2022-10-13T11:28:21.291Z,17.90
2022-10-13T11:30:57.391Z,17.70
2022-10-13T11:33:39.560Z,17.60
2022-10-13T11:36:31.219Z,17.60
2022-10-13T11:39:05.648Z,17.40
2022-10-13T11:41:42.727Z,17.20
2022-10-13T11:44:21.565Z,17.10
2022-10-13T11:47:17.872Z,16.90
2022-10-13T11:50:27.860Z,16.60
2022-10-13T11:53:07.206Z,16.60
2022-10-13T11:55:48.986Z,16.60
2022-10-13T11:58:19.987Z,16.40
2022-10-13T12:01:14.461Z,16.50
2022-10-13T12:03:44.381Z,16.40
2022-10-13T12:06:36.908Z,16.30
2022-10-13T12:09:24.502Z,16.20
2022-10-13T12:12:13.647Z,16.20
2022-10-13T12:14:43.428Z,16.20
2022-10-13T12:17:23.738Z,16.10
2022-10-13T12:19:57.882Z,16.30
2022-10-13T12:22:26.371Z,16.50
2022-10-13T12:25:00.866Z,16.40
2022-10-13T12:27:29.439Z,16.30
2022-10-13T12:29:56.190Z,16.10
2022-10-13T12:32:24.967Z,16.20
2022-10-13T12:34:51.753Z,16.20
2022-10-13T12:37:23.893Z,16.30
2022-10-13T12:39:51.330Z,16.40
2022-10-13T12:42:18.428Z,16.70
2022-10-13T12:44:45.672Z,17.10
2022-10-13T12:47:39.357Z,17.40
2022-10-13T12:50:24.977Z,17.60
2022-10-13T12:53:03.113Z,17.60
2022-10-13T12:55:31.063Z,17.60
2022-10-13T12:57:58.189Z,17.40
2022-10-13T13:00:27.055Z,17.00
2022-10-13T13:02:59.174Z,16.70
2022-10-13T13:05:34.633Z,16.60
2022-10-13T13:08:24.298Z,16.40
2022-10-13T13:10:58.495Z,16.30
2022-10-13T13:13:25.716Z,16.20
2022-10-13T13:15:52.902Z,16.20
2022-10-13T13:18:41.650Z,16.20
2022-10-13T13:21:11.572Z,16.30
2022-10-13T13:23:42.556Z,16.20
2022-10-13T13:26:14.646Z,16.00
2022-10-13T13:28:51.075Z,16.00
2022-10-13T13:31:19.611Z,16.20
2022-10-13T13:33:47.157Z,16.40
2022-10-13T13:36:22.498Z,16.50
2022-10-13T13:38:51.659Z,16.60
2022-10-13T13:41:18.783Z,16.80
2022-10-13T13:43:45.808Z,16.90
2022-10-13T13:46:16.921Z,16.70
2022-10-13T13:48:43.803Z,16.60
2022-10-13T13:51:10.747Z,16.40
2022-10-13T13:53:37.755Z,16.40
2022-10-13T13:56:04.982Z,16.40
2022-10-13T13:58:31.727Z,16.40
2022-10-13T14:01:02.695Z,16.40
2022-10-13T14:03:29.494Z,16.40
2022-10-13T14:05:56.204Z,16.30
2022-10-13T14:08:23.580Z,16.40
2022-10-13T14:10:50.434Z,16.30
2022-10-13T14:13:18.442Z,16.20
2022-10-13T14:15:45.091Z,16.20
2022-10-13T14:18:13.551Z,16.10
2022-10-13T14:20:43.880Z,16.00
2022-10-13T14:23:11.102Z,15.90
2022-10-13T14:25:38.747Z,15.80
2022-10-13T14:28:05.560Z,15.80
2022-10-13T14:30:32.249Z,15.70
2022-10-13T14:32:58.940Z,15.70
2022-10-13T14:35:26.576Z,15.70
2022-10-13T14:37:53.516Z,15.70
2022-10-13T14:40:20.406Z,15.70
2022-10-13T14:42:47.131Z,15.70
2022-10-13T14:45:15.825Z,15.70
2022-10-13T14:47:45.516Z,15.80
2022-10-13T14:50:12.589Z,15.90
2022-10-13T14:52:39.737Z,16.10
2022-10-13T14:55:06.995Z,16.10
2022-10-13T14:57:34.408Z,16.20
2022-10-13T15:00:02.260Z,16.20
2022-10-13T15:02:29.576Z,16.20
2022-10-13T15:04:57.962Z,16.20
2022-10-13T15:07:24.834Z,16.10
2022-10-13T15:10:04.206Z,16.20
2022-10-13T15:12:32.409Z,16.10
2022-10-13T15:14:59.142Z,16.00
2022-10-13T15:17:26.034Z,16.00
2022-10-13T15:19:52.720Z,16.00
2022-10-13T15:22:20.161Z,16.00
2022-10-13T15:24:47.120Z,16.00
2022-10-13T15:27:19.210Z,15.90
2022-10-13T15:29:56.361Z,15.90
2022-10-13T15:32:23.436Z,15.80
2022-10-13T15:34:54.678Z,15.80
2022-10-13T15:37:21.467Z,15.70
2022-10-13T15:39:51.962Z,15.70
2022-10-13T15:42:21.987Z,15.60
2022-10-13T15:47:36.429Z,15.60
2022-10-13T15:50:03.706Z,15.50
2022-10-13T15:52:34.697Z,15.50
2022-10-13T15:55:02.274Z,15.40
2022-10-13T15:57:31.214Z,15.30
2022-10-13T15:59:58.112Z,15.30
2022-10-13T16:02:25.049Z,15.20
2022-10-13T16:04:52.065Z,15.10
2022-10-13T16:07:18.770Z,15.10
2022-10-13T16:09:45.680Z,15.00
2022-10-13T16:12:12.788Z,14.90
2022-10-13T16:14:40.550Z,14.90
2022-10-13T16:17:07.352Z,14.80
2022-10-13T16:19:34.093Z,14.80
2022-10-13T16:22:01.020Z,14.70
2022-10-13T16:24:28.593Z,14.70
2022-10-13T16:26:55.391Z,14.70
2022-10-13T16:29:24.259Z,14.70
2022-10-13T16:31:51.634Z,14.60
2022-10-13T16:34:18.747Z,14.60
2022-10-13T16:36:45.861Z,14.50
2022-10-13T16:39:12.745Z,14.50
2022-10-13T16:41:40.045Z,14.50
2022-10-13T16:44:06.952Z,14.40
2022-10-13T16:46:33.713Z,14.40
2022-10-13T16:49:00.995Z,14.40
2022-10-13T16:51:28.709Z,14.30
2022-10-13T16:54:03.953Z,14.30
2022-10-13T16:56:32.035Z,14.30
2022-10-13T16:59:00.964Z,14.30
2022-10-13T17:01:29.354Z,14.20
2022-10-13T17:03:59.149Z,14.20
2022-10-13T17:06:27.039Z,14.20
2022-10-13T17:08:59.420Z,14.20
2022-10-13T17:11:29.103Z,14.10
2022-10-13T17:13:57.813Z,14.10
2022-10-13T17:16:25.303Z,14.10
2022-10-13T17:18:52.209Z,14.00
2022-10-13T17:21:19.759Z,14.00
2022-10-13T17:23:48.818Z,14.00
2022-10-13T17:26:17.772Z,14.00
2022-10-13T17:28:44.975Z,13.90
2022-10-13T17:31:17.834Z,13.90
2022-10-13T17:33:45.359Z,13.90
2022-10-13T17:36:18.130Z,13.90
2022-10-13T17:38:45.874Z,13.90
2022-10-13T17:41:13.827Z,13.90
2022-10-13T17:43:47.955Z,13.90
2022-10-13T17:46:36.253Z,13.90
2022-10-13T17:49:04.278Z,13.90
2022-10-13T17:51:31.201Z,13.90
2022-10-13T17:53:58.995Z,13.90
2022-10-13T17:56:26.414Z,13.80
2022-10-13T17:58:56.836Z,13.90
2022-10-13T18:01:26.831Z,13.80
2022-10-13T18:03:56.382Z,13.80
2022-10-13T18:06:32.581Z,13.80
2022-10-13T18:09:07.388Z,13.80
2022-10-13T18:11:38.481Z,13.80
2022-10-13T18:14:06.648Z,13.80
2022-10-13T18:16:33.989Z,13.80
2022-10-13T18:19:01.218Z,13.90
2022-10-13T18:21:28.482Z,13.90
2022-10-13T18:23:57.530Z,13.80
2022-10-13T18:26:29.731Z,13.90
2022-10-13T18:28:57.470Z,13.90
2022-10-13T18:31:30.124Z,13.90
2022-10-13T18:33:59.939Z,13.90
2022-10-13T18:36:31.561Z,13.80
2022-10-13T18:39:04.797Z,13.90
2022-10-13T18:41:33.279Z,13.90
2022-10-13T18:44:00.561Z,14.00
2022-10-13T18:46:27.441Z,14.00
2022-10-13T18:48:55.297Z,14.00
2022-10-13T18:51:22.306Z,13.90
2022-10-13T18:53:52.680Z,14.00
2022-10-13T18:56:27.107Z,13.90
2022-10-13T18:58:59.651Z,13.90
2022-10-13T19:01:29.029Z,14.00
2022-10-13T19:03:56.343Z,14.00
2022-10-13T19:06:26.948Z,14.00
2022-10-13T19:09:00.718Z,14.10
2022-10-13T19:11:29.255Z,14.10
2022-10-13T19:13:59.919Z,14.00
2022-10-13T19:16:28.524Z,14.00
2022-10-13T19:18:55.637Z,14.00
2022-10-13T19:21:24.371Z,14.00
2022-10-13T19:23:51.720Z,14.00
2022-10-13T19:26:24.663Z,13.90
2022-10-13T19:28:57.717Z,13.90
2022-10-13T19:31:27.120Z,14.00
2022-10-13T19:33:55.509Z,13.90
2022-10-13T19:36:46.321Z,14.00
2022-10-13T19:39:19.733Z,14.00
2022-10-13T19:41:53.264Z,13.90
2022-10-13T19:44:21.338Z,13.90
2022-10-13T19:46:49.198Z,13.80
2022-10-13T19:49:20.804Z,13.80
2022-10-13T19:52:12.497Z,13.70
2022-10-13T19:54:40.034Z,13.70
2022-10-13T19:57:07.750Z,13.70
2022-10-13T19:59:52.095Z,13.60
2022-10-13T20:02:19.524Z,13.60
2022-10-13T20:04:46.248Z,13.60
2022-10-13T20:07:12.909Z,13.60
2022-10-13T20:09:40.505Z,13.50
2022-10-13T20:12:07.664Z,13.50
2022-10-13T20:14:40.233Z,13.50
2022-10-13T20:17:06.993Z,13.50
2022-10-13T20:19:33.829Z,13.40
2022-10-13T20:22:01.663Z,13.40
2022-10-13T20:24:28.540Z,13.40
2022-10-13T20:26:56.181Z,13.40
2022-10-13T20:29:24.526Z,13.40
2022-10-13T20:31:51.638Z,13.40
2022-10-13T20:34:18.622Z,13.40
2022-10-13T20:36:45.362Z,13.30
2022-10-13T20:39:12.284Z,13.30
2022-10-13T20:41:38.958Z,13.30
2022-10-13T20:44:06.277Z,13.30
2022-10-13T20:46:33.827Z,13.20
2022-10-13T20:49:15.802Z,13.20
2022-10-13T20:51:43.581Z,13.20
2022-10-13T20:54:12.411Z,13.20
2022-10-13T20:56:40.051Z,13.20
2022-10-13T20:59:10.141Z,13.10
2022-10-13T21:01:38.833Z,13.10
2022-10-13T21:04:05.988Z,13.10
2022-10-13T21:06:33.866Z,13.10
2022-10-13T21:09:02.041Z,13.10
2022-10-13T21:11:29.430Z,13.00
2022-10-13T21:13:57.700Z,13.00
2022-10-13T21:16:29.967Z,12.90
2022-10-13T21:18:58.126Z,12.90
2022-10-13T21:21:31.642Z,12.80
2022-10-13T21:24:04.326Z,12.80
2022-10-13T21:26:32.489Z,12.80
2022-10-13T21:29:02.865Z,12.80
2022-10-13T21:31:30.519Z,12.80
2022-10-13T21:34:06.134Z,12.80
2022-10-13T21:36:34.266Z,12.80
2022-10-13T21:39:04.511Z,12.80
2022-10-13T21:41:36.613Z,12.80
2022-10-13T21:44:04.125Z,12.80
2022-10-13T21:46:34.213Z,12.90
2022-10-13T21:49:04.076Z,12.90
2022-10-13T21:51:35.210Z,12.90
2022-10-13T21:54:05.887Z,12.90
2022-10-13T21:56:44.632Z,13.00
2022-10-13T21:59:12.841Z,13.00
2022-10-13T22:01:40.009Z,13.00
2022-10-13T22:04:14.506Z,13.10
2022-10-13T22:06:41.835Z,13.20
2022-10-13T22:09:09.334Z,13.20
2022-10-13T22:11:38.227Z,13.00
2022-10-13T22:14:12.497Z,13.10
2022-10-13T22:16:42.896Z,13.20
2022-10-13T22:19:11.183Z,13.20
2022-10-13T22:21:42.429Z,13.20
2022-10-13T22:24:13.082Z,13.20
2022-10-13T22:26:41.523Z,13.10
2022-10-13T22:29:10.502Z,13.10
2022-10-13T22:31:38.471Z,13.10
2022-10-13T22:34:12.911Z,13.10
2022-10-13T22:36:44.417Z,13.10
2022-10-13T22:39:11.559Z,13.20
2022-10-13T22:41:38.499Z,13.20
2022-10-13T22:44:07.379Z,13.10
2022-10-13T22:46:37.874Z,13.20
2022-10-13T22:49:06.084Z,13.20
2022-10-13T22:51:36.978Z,13.20
2022-10-13T22:54:04.850Z,13.20
2022-10-13T22:56:36.805Z,13.20
2022-10-13T22:59:08.252Z,13.20
2022-10-13T23:01:41.093Z,13.20
2022-10-13T23:04:08.409Z,13.20
2022-10-13T23:06:36.002Z,13.20
2022-10-13T23:09:07.724Z,13.20
2022-10-13T23:11:35.733Z,13.20
2022-10-13T23:14:05.443Z,13.20
2022-10-13T23:16:32.523Z,13.20
2022-10-13T23:18:59.330Z,13.20
2022-10-13T23:21:28.880Z,13.20
2022-10-13T23:24:00.634Z,13.20
2022-10-13T23:26:28.492Z,13.10
2022-10-13T23:28:56.602Z,13.20
2022-10-13T23:31:24.004Z,13.20
2022-10-13T23:33:52.112Z,13.30
2022-10-13T23:36:24.378Z,13.30
2022-10-13T23:38:56.102Z,13.30
2022-10-13T23:41:23.345Z,13.30
2022-10-13T23:43:50.665Z,13.30
2022-10-13T23:46:17.829Z,13.30
2022-10-13T23:48:45.022Z,13.40
2022-10-13T23:51:19.091Z,13.30
2022-10-13T23:53:47.438Z,13.40
2022-10-13T23:56:15.850Z,13.40
2022-10-13T23:58:44.419Z,13.40
